createdAt,value
2019-05-16T00:09:01.035Z,10.00
2019-05-16T00:31:15.049Z,10.05
2019-05-16T01:02:28.667Z,9.48
2019-05-16T01:11:24.122Z,11.35
2019-05-16T01:14:02.222Z,10.85
2019-05-16T01:16:34.999Z,11.08
2019-05-16T01:19:08.908Z,12.13
2019-05-16T01:21:41.900Z,10.95
2019-05-16T01:24:18.636Z,12.30
2019-05-16T01:26:55.239Z,11.30
2019-05-16T01:29:29.152Z,9.50
2019-05-16T01:32:22.111Z,10.05
2019-05-16T01:38:19.688Z,10.18
2019-05-16T01:41:37.811Z,9.88
2019-05-16T02:00:00.059Z,9.68
2019-05-16T02:02:33.966Z,9.23
2019-05-16T02:05:08.674Z,11.00
2019-05-16T02:07:41.600Z,10.58
2019-05-16T02:10:17.888Z,11.75
2019-05-16T02:12:49.902Z,10.65
2019-05-16T02:15:23.197Z,10.08
2019-05-16T02:17:58.541Z,9.68
2019-05-16T02:20:30.088Z,11.22
2019-05-16T02:23:03.075Z,10.65
2019-05-16T02:25:40.521Z,10.85
2019-05-16T02:28:11.503Z,11.93
2019-05-16T02:30:45.411Z,11.85
2019-05-16T02:33:20.923Z,11.15
2019-05-16T02:35:55.691Z,11.65
2019-05-16T02:38:27.749Z,11.38
2019-05-16T02:41:03.067Z,12.07
2019-05-16T02:43:35.737Z,10.68
2019-05-16T02:46:11.644Z,10.38
2019-05-16T02:48:44.732Z,11.38
2019-05-16T02:51:20.939Z,11.35
2019-05-16T02:53:51.628Z,11.05
2019-05-16T02:56:24.791Z,12.25
2019-05-16T02:59:16.824Z,11.08
2019-05-16T03:01:52.153Z,9.88
2019-05-16T03:04:44.583Z,11.48
2019-05-16T03:10:20.372Z,12.45
2019-05-16T03:15:56.497Z,13.00
2019-05-16T03:24:42.227Z,11.95
2019-05-16T03:44:57.973Z,9.93
2019-05-16T03:47:34.044Z,10.85
2019-05-16T04:00:51.274Z,11.65
2019-05-16T04:10:45.344Z,11.40
2019-05-16T04:13:21.399Z,10.20
2019-05-16T04:22:45.113Z,11.43
2019-05-16T04:31:56.691Z,12.18
2019-05-16T04:37:42.856Z,12.23
2019-05-16T04:40:17.912Z,12.33
2019-05-16T04:59:32.345Z,11.75
2019-05-16T05:02:06.069Z,12.95
2019-05-16T05:04:41.385Z,12.28
2019-05-16T05:07:12.966Z,12.78
2019-05-16T05:09:46.130Z,12.35
2019-05-16T05:12:20.747Z,12.37
2019-05-16T05:14:54.265Z,13.22
2019-05-16T05:17:30.415Z,12.88
2019-05-16T05:20:01.453Z,12.58
2019-05-16T05:22:34.438Z,12.55
2019-05-16T05:25:10.914Z,11.90
2019-05-16T05:27:44.531Z,11.40
2019-05-16T05:30:19.804Z,12.53
2019-05-16T05:32:53.335Z,12.13
2019-05-16T05:35:25.818Z,12.37
2019-05-16T05:38:00.410Z,12.23
2019-05-16T05:40:33.182Z,11.28
2019-05-16T05:43:06.004Z,10.58
2019-05-16T05:45:40.158Z,10.28
2019-05-16T05:48:12.898Z,11.08
2019-05-16T05:50:45.088Z,11.43
2019-05-16T05:53:20.818Z,10.35
2019-05-16T05:55:52.903Z,11.63
2019-05-16T05:58:26.377Z,9.40
2019-05-16T06:01:00.657Z,10.13
2019-05-16T06:03:33.720Z,10.65
2019-05-16T06:06:06.676Z,11.35
2019-05-16T06:08:40.895Z,11.90
2019-05-16T06:11:13.583Z,11.10
2019-05-16T06:13:46.574Z,11.57
2019-05-16T06:16:20.358Z,10.93
2019-05-16T06:18:53.460Z,10.55
2019-05-16T06:21:26.630Z,11.28
2019-05-16T06:23:59.908Z,12.10
2019-05-16T06:26:33.520Z,12.80
2019-05-16T06:29:10.321Z,12.40
2019-05-16T06:31:41.950Z,12.25
2019-05-16T06:34:15.401Z,13.18
2019-05-16T06:36:48.048Z,13.03
2019-05-16T06:39:21.830Z,12.98
2019-05-16T06:41:54.939Z,13.58
2019-05-16T06:44:30.670Z,13.38
2019-05-16T06:47:15.792Z,13.20
2019-05-16T06:49:40.169Z,14.38
2019-05-16T06:52:13.209Z,12.63
2019-05-16T06:54:46.501Z,14.13
2019-05-16T06:57:20.734Z,13.58
2019-05-16T06:59:53.395Z,13.72
2019-05-16T07:02:31.588Z,13.43
2019-05-16T07:05:05.420Z,12.63
2019-05-16T07:10:31.142Z,13.40
2019-05-16T07:13:06.894Z,15.00
2019-05-16T07:15:44.493Z,14.03
2019-05-16T07:18:20.740Z,15.10
2019-05-16T07:20:52.916Z,13.43
2019-05-16T07:23:25.289Z,15.85
2019-05-16T07:26:00.795Z,15.25
2019-05-16T07:28:33.410Z,15.63
2019-05-16T07:31:17.588Z,14.68
2019-05-16T07:33:44.604Z,15.72
2019-05-16T07:36:17.588Z,15.60
2019-05-16T07:38:51.652Z,15.60
2019-05-16T07:41:27.679Z,15.00
2019-05-16T07:44:01.105Z,14.45
2019-05-16T07:46:35.370Z,14.23
2019-05-16T07:49:11.154Z,17.17
2019-05-16T07:51:42.398Z,17.42
2019-05-16T07:54:15.863Z,16.02
2019-05-16T07:56:57.306Z,16.48
2019-05-16T07:59:23.063Z,14.03
2019-05-16T08:01:56.048Z,15.13
2019-05-16T08:04:53.625Z,13.00
2019-05-16T08:07:54.017Z,11.85
2019-05-16T08:15:37.194Z,12.75
2019-05-16T08:18:11.219Z,13.15
2019-05-16T08:20:44.098Z,13.18
2019-05-16T08:23:21.371Z,12.35
2019-05-16T08:25:51.719Z,11.97
2019-05-16T08:28:26.117Z,12.75
2019-05-16T08:31:00.924Z,12.43
2019-05-16T08:33:53.506Z,9.50
2019-05-16T08:36:42.258Z,10.48
2019-05-16T08:39:14.441Z,7.62
2019-05-16T08:41:51.583Z,1.40
2019-05-16T08:44:22.739Z,1.70
2019-05-16T08:46:58.133Z,2.95
2019-05-16T08:49:31.836Z,3.25
2019-05-16T08:50:10.976Z,13.32
2019-05-16T08:50:11.202Z,13.48
2019-05-16T08:52:05.383Z,3.42
2019-05-16T08:54:42.980Z,3.52
2019-05-16T08:57:27.605Z,2.58
2019-05-16T09:02:52.040Z,4.35
2019-05-16T09:05:23.250Z,4.78
2019-05-16T09:08:00.622Z,4.47
2019-05-16T09:10:59.963Z,4.72
2019-05-16T09:13:07.172Z,5.55
2019-05-16T09:15:39.428Z,6.45
2019-05-16T09:18:12.411Z,5.85
2019-05-16T09:20:46.012Z,5.92
2019-05-16T09:23:19.305Z,6.90
2019-05-16T09:25:52.906Z,6.47
2019-05-16T09:28:28.312Z,5.55
2019-05-16T09:31:00.104Z,6.50
2019-05-16T09:33:33.090Z,5.90
2019-05-16T09:36:08.031Z,5.83
2019-05-16T09:38:42.450Z,5.28
2019-05-16T09:41:16.922Z,5.90
2019-05-16T09:43:50.870Z,6.08
2019-05-16T09:46:24.470Z,5.85
2019-05-16T09:49:15.925Z,5.67
2019-05-16T09:51:32.285Z,5.47
2019-05-16T09:54:07.047Z,5.25
2019-05-16T09:56:40.099Z,5.58
2019-05-16T09:59:14.007Z,4.72
2019-05-16T10:01:48.049Z,5.10
2019-05-16T10:04:21.640Z,4.95
2019-05-16T10:06:57.014Z,4.53
2019-05-16T10:09:41.401Z,5.97
2019-05-16T10:12:11.345Z,4.80
2019-05-16T10:14:38.680Z,4.28
2019-05-16T10:17:12.587Z,5.47
2019-05-16T10:19:47.515Z,6.45
2019-05-16T10:22:21.016Z,6.40
2019-05-16T10:24:57.134Z,6.22
2019-05-16T10:27:30.038Z,6.87
2019-05-16T10:30:04.102Z,5.83
2019-05-16T10:32:39.816Z,6.28
2019-05-16T10:35:13.317Z,6.00
2019-05-16T10:37:47.119Z,5.78
2019-05-16T10:40:20.210Z,5.33
2019-05-16T10:42:53.698Z,5.78
2019-05-16T10:45:27.351Z,7.33
2019-05-16T10:48:00.587Z,6.47
2019-05-16T10:50:33.407Z,6.62
2019-05-16T10:53:25.744Z,8.15
2019-05-16T10:55:40.275Z,8.35
2019-05-16T10:58:13.262Z,8.25
2019-05-16T11:01:09.933Z,7.20
2019-05-16T11:03:22.622Z,8.23
2019-05-16T11:06:05.292Z,6.35
2019-05-16T11:08:31.041Z,6.60
2019-05-16T11:11:06.700Z,6.62
2019-05-16T11:13:38.060Z,6.55
2019-05-16T11:16:11.841Z,6.03
2019-05-16T11:18:44.827Z,6.00
2019-05-16T11:21:19.277Z,5.80
2019-05-16T11:23:51.848Z,6.03
2019-05-16T11:26:24.092Z,6.12
2019-05-16T11:28:57.816Z,6.40
2019-05-16T11:31:30.985Z,5.83
2019-05-16T11:34:04.719Z,5.62
2019-05-16T11:36:38.187Z,5.25
2019-05-16T11:39:11.606Z,5.72
2019-05-16T11:41:47.340Z,6.10
2019-05-16T11:44:19.292Z,6.15
2019-05-16T11:46:52.405Z,5.58
2019-05-16T11:49:27.536Z,5.40
2019-05-16T11:52:00.234Z,6.00
2019-05-16T11:54:33.693Z,5.45
2019-05-16T11:57:08.521Z,5.53
2019-05-16T12:00:30.166Z,5.05
2019-05-16T12:03:20.038Z,4.83
2019-05-16T12:05:57.972Z,4.20
2019-05-16T12:08:33.272Z,4.65
2019-05-16T12:11:07.203Z,5.33
2019-05-16T12:13:47.623Z,5.28
2019-05-16T12:16:21.139Z,5.28
2019-05-16T12:18:57.054Z,5.10
2019-05-16T12:21:29.260Z,5.47
2019-05-16T12:24:02.681Z,5.45
2019-05-16T12:29:31.574Z,4.70
2019-05-16T12:32:23.903Z,5.28
2019-05-16T12:35:06.723Z,5.00
2019-05-16T12:40:43.007Z,4.62
2019-05-16T12:43:44.214Z,5.00
2019-05-16T12:46:08.430Z,4.95
2019-05-16T12:51:36.985Z,5.62
2019-05-16T12:57:11.368Z,4.53
2019-05-16T12:59:50.021Z,4.55
2019-05-16T13:02:21.763Z,4.55
2019-05-16T13:04:57.394Z,4.42
2019-05-16T13:07:29.146Z,4.22
2019-05-16T13:10:01.644Z,5.03
2019-05-16T13:12:33.889Z,3.60
2019-05-16T13:15:07.615Z,4.00
2019-05-16T13:17:40.796Z,4.42
2019-05-16T13:20:14.507Z,4.50
2019-05-16T13:22:47.676Z,3.58
2019-05-16T13:25:21.403Z,3.60
2019-05-16T13:27:54.569Z,4.03
2019-05-16T13:30:28.292Z,3.72
2019-05-16T13:33:01.462Z,3.72
2019-05-16T13:35:36.967Z,4.10
2019-05-16T13:38:09.618Z,3.98
2019-05-16T13:40:42.880Z,3.52
2019-05-16T13:43:17.417Z,4.15
2019-05-16T13:45:49.770Z,3.30
2019-05-16T13:48:22.881Z,3.52
2019-05-16T13:51:10.975Z,3.15
2019-05-16T13:53:30.570Z,3.55
2019-05-16T13:56:07.097Z,3.62
2019-05-16T13:58:57.030Z,3.62
2019-05-16T14:01:30.421Z,3.75
2019-05-16T14:04:09.033Z,3.67
2019-05-16T14:06:41.683Z,3.50
2019-05-16T14:09:14.909Z,2.75
2019-05-16T14:11:48.197Z,3.05
2019-05-16T14:14:34.859Z,2.92
2019-05-16T14:16:55.215Z,3.27
2019-05-16T14:19:30.533Z,3.33
2019-05-16T14:22:04.441Z,2.70
2019-05-16T14:24:38.357Z,3.67
2019-05-16T14:27:12.076Z,2.72
2019-05-16T14:29:47.694Z,3.05
2019-05-16T14:32:20.393Z,3.30
2019-05-16T14:34:53.671Z,3.20
2019-05-16T14:37:26.963Z,3.00
2019-05-16T14:40:01.324Z,2.72
2019-05-16T14:42:34.670Z,3.10
2019-05-16T14:45:13.606Z,2.92
2019-05-16T14:47:47.478Z,3.17
2019-05-16T14:50:27.301Z,2.90
2019-05-16T14:52:58.519Z,3.25
2019-05-16T14:55:32.428Z,3.08
2019-05-16T14:58:07.344Z,3.10
2019-05-16T15:00:40.117Z,4.78
2019-05-16T15:03:12.305Z,3.33
2019-05-16T15:05:47.975Z,3.65
2019-05-16T15:08:19.996Z,3.70
2019-05-16T15:10:53.903Z,3.92
2019-05-16T15:13:28.008Z,3.10
2019-05-16T15:16:00.797Z,2.92
2019-05-16T15:18:32.989Z,3.83
2019-05-16T15:21:08.543Z,2.80
2019-05-16T15:23:41.597Z,2.85
2019-05-16T15:26:14.718Z,3.25
2019-05-16T15:28:47.989Z,2.98
2019-05-16T15:31:21.476Z,2.90
2019-05-16T15:33:53.663Z,2.75
2019-05-16T15:36:28.062Z,2.65
2019-05-16T15:39:00.556Z,2.72
2019-05-16T15:41:36.677Z,2.87
2019-05-16T15:44:08.947Z,2.65
2019-05-16T15:46:42.160Z,2.67
2019-05-16T15:49:17.078Z,2.55
2019-05-16T15:51:50.584Z,2.47
2019-05-16T15:54:28.474Z,2.98
2019-05-16T15:57:02.393Z,2.60
2019-05-16T15:59:38.449Z,2.85
2019-05-16T16:02:11.436Z,2.95
2019-05-16T16:04:44.422Z,2.60
2019-05-16T16:07:18.182Z,2.50
2019-05-16T16:09:50.825Z,2.92
2019-05-16T16:12:26.499Z,2.72
2019-05-16T16:14:57.619Z,2.50
2019-05-16T16:17:30.705Z,2.67
2019-05-16T16:20:03.877Z,2.70
2019-05-16T16:22:37.972Z,2.70
2019-05-16T16:25:12.306Z,2.37
2019-05-16T16:27:45.408Z,2.30
2019-05-16T16:30:20.735Z,2.27
2019-05-16T16:32:54.644Z,2.02
2019-05-16T16:35:28.367Z,2.50
2019-05-16T16:38:01.541Z,2.52
2019-05-16T16:40:37.539Z,2.80
2019-05-16T16:43:11.496Z,2.52
2019-05-16T16:45:44.032Z,2.35
2019-05-16T16:48:17.106Z,2.20
2019-05-16T16:50:50.453Z,1.75
2019-05-16T16:53:23.870Z,2.47
2019-05-16T16:55:56.997Z,2.10
2019-05-16T16:58:29.844Z,1.85
2019-05-16T17:01:03.011Z,1.95
2019-05-16T17:03:36.750Z,1.90
2019-05-16T17:06:09.719Z,1.95
2019-05-16T17:08:42.891Z,2.35
2019-05-16T17:11:16.799Z,1.82
2019-05-16T17:13:49.782Z,2.12
2019-05-16T17:16:26.836Z,2.90
2019-05-16T17:18:58.831Z,2.08
2019-05-16T17:21:32.119Z,2.22
2019-05-16T17:24:06.409Z,2.50
2019-05-16T17:26:39.012Z,2.05
2019-05-16T17:29:11.204Z,3.02
2019-05-16T17:34:16.302Z,2.62
2019-05-16T17:36:48.804Z,2.55
2019-05-16T17:39:21.794Z,2.62
2019-05-16T17:41:57.911Z,2.45
2019-05-16T17:44:31.145Z,3.00
2019-05-16T17:47:07.045Z,3.33
2019-05-16T17:49:39.571Z,2.75
2019-05-16T17:52:13.621Z,2.47
2019-05-16T17:54:46.463Z,2.37
2019-05-16T17:57:20.063Z,2.30
2019-05-16T17:59:53.358Z,2.40
2019-05-16T18:02:26.962Z,3.35
2019-05-16T18:05:00.324Z,2.67
2019-05-16T18:07:36.395Z,2.85
2019-05-16T18:10:10.347Z,2.62
2019-05-16T18:12:47.666Z,2.45
2019-05-16T18:15:22.146Z,3.47
2019-05-16T18:17:57.475Z,2.80
2019-05-16T18:20:31.373Z,2.50
2019-05-16T18:23:07.129Z,2.50
2019-05-16T18:25:39.802Z,2.17
2019-05-16T18:28:13.403Z,2.37
2019-05-16T18:30:47.244Z,2.12
2019-05-16T18:33:20.603Z,2.42
2019-05-16T18:35:53.592Z,2.70
2019-05-16T18:38:27.498Z,2.47
2019-05-16T18:41:00.482Z,2.50
2019-05-16T18:43:36.442Z,2.77
2019-05-16T18:46:11.369Z,2.80
2019-05-16T18:48:46.996Z,2.83
2019-05-16T18:51:21.038Z,2.20
2019-05-16T18:53:56.886Z,2.20
2019-05-16T18:56:29.166Z,1.82
2019-05-16T18:59:14.116Z,2.02
2019-05-16T19:01:52.331Z,2.17
2019-05-16T19:05:23.685Z,2.25
2019-05-16T19:08:09.565Z,2.75
2019-05-16T19:11:27.457Z,2.80
2019-05-16T19:13:43.929Z,2.47
2019-05-16T19:16:17.706Z,2.45
2019-05-16T19:18:52.228Z,3.22
2019-05-16T19:21:27.057Z,2.02
2019-05-16T19:24:00.043Z,2.10
2019-05-16T19:26:37.373Z,1.98
2019-05-16T19:29:21.580Z,2.52
2019-05-16T19:31:57.570Z,3.80
2019-05-16T19:34:32.011Z,3.42
2019-05-16T19:37:08.935Z,5.05
2019-05-16T19:39:42.842Z,4.58
2019-05-16T19:42:17.115Z,6.03
2019-05-16T19:44:49.733Z,6.20
2019-05-16T19:47:34.957Z,6.40
2019-05-16T19:49:59.707Z,7.00
2019-05-16T19:52:33.614Z,6.25
2019-05-16T19:55:10.101Z,6.50
2019-05-16T19:57:43.880Z,5.95
2019-05-16T20:00:17.375Z,6.72
2019-05-16T20:02:50.771Z,6.58
2019-05-16T20:05:26.509Z,6.05
2019-05-16T20:07:57.807Z,6.62
2019-05-16T20:10:31.265Z,6.65
2019-05-16T20:13:04.558Z,6.67
2019-05-16T20:15:41.238Z,5.95
2019-05-16T20:18:12.988Z,5.70
2019-05-16T20:20:47.246Z,5.33
2019-05-16T20:23:20.187Z,5.28
2019-05-16T20:25:53.372Z,4.80
2019-05-16T20:28:26.705Z,5.15
2019-05-16T20:31:00.262Z,4.65
2019-05-16T20:33:33.052Z,5.40
2019-05-16T20:36:06.365Z,6.33
2019-05-16T20:38:41.481Z,4.92
2019-05-16T20:41:17.107Z,6.42
2019-05-16T20:43:50.525Z,5.78
2019-05-16T20:46:23.026Z,5.05
2019-05-16T20:48:58.727Z,5.17
2019-05-16T20:51:30.713Z,5.40
2019-05-16T20:54:06.933Z,4.50
2019-05-16T20:56:40.061Z,5.67
2019-05-16T20:59:13.968Z,5.12
2019-05-16T21:01:49.225Z,5.00
2019-05-16T21:04:22.397Z,5.15
2019-05-16T21:07:01.569Z,5.05
2019-05-16T21:09:29.291Z,5.08
2019-05-16T21:12:02.280Z,4.55
2019-05-16T21:14:35.400Z,5.22
2019-05-16T21:17:08.378Z,4.30
2019-05-16T21:19:41.541Z,4.78
2019-05-16T21:22:16.230Z,5.45
2019-05-16T21:24:49.973Z,4.60
2019-05-16T21:27:22.159Z,4.60
2019-05-16T21:29:56.672Z,5.15
2019-05-16T21:32:29.058Z,4.92
2019-05-16T21:35:02.961Z,4.72
2019-05-16T21:37:37.385Z,4.67
2019-05-16T21:40:11.263Z,4.72
2019-05-16T21:42:44.249Z,4.20
2019-05-16T21:45:17.691Z,4.00
2019-05-16T21:47:50.527Z,4.28
2019-05-16T21:50:24.128Z,4.22
2019-05-16T21:52:57.421Z,4.00
2019-05-16T21:55:31.021Z,4.37
2019-05-16T21:58:04.314Z,3.85
2019-05-16T22:00:47.460Z,3.75
2019-05-16T22:03:21.652Z,3.47
2019-05-16T22:05:57.597Z,3.72
2019-05-16T22:08:30.084Z,4.20
2019-05-16T22:11:06.565Z,3.70
2019-05-16T22:13:40.981Z,3.85
2019-05-16T22:16:17.368Z,3.40
2019-05-16T22:18:50.319Z,4.50
2019-05-16T22:21:24.225Z,3.62
2019-05-16T22:23:57.951Z,4.12
2019-05-16T22:26:31.119Z,3.80
2019-05-16T22:29:06.714Z,3.87
2019-05-16T22:31:39.548Z,3.15
2019-05-16T22:34:12.536Z,3.65
2019-05-16T22:36:49.203Z,3.42
2019-05-16T22:39:20.532Z,3.35
2019-05-16T22:41:53.334Z,3.12
2019-05-16T22:44:27.100Z,3.50
2019-05-16T22:47:00.227Z,3.00
2019-05-16T22:49:33.343Z,2.72
2019-05-16T22:52:07.121Z,2.77
2019-05-16T22:54:40.106Z,2.83
2019-05-16T22:57:13.216Z,2.92
2019-05-16T22:59:46.999Z,3.17
2019-05-16T23:02:20.599Z,2.98
2019-05-16T23:04:53.097Z,2.72
2019-05-16T23:07:27.443Z,2.67
2019-05-16T23:10:00.785Z,2.70
2019-05-16T23:12:36.938Z,3.25
2019-05-16T23:15:10.136Z,3.05
2019-05-16T23:17:43.859Z,2.55
2019-05-16T23:20:18.565Z,2.77
2019-05-16T23:22:51.553Z,3.05
2019-05-16T23:25:24.660Z,2.80
2019-05-16T23:27:57.648Z,3.65
2019-05-16T23:30:30.815Z,3.75
2019-05-16T23:33:03.801Z,3.80
2019-05-16T23:35:37.837Z,3.60
2019-05-16T23:38:19.486Z,3.77
2019-05-16T23:40:46.819Z,3.72
2019-05-16T23:43:19.262Z,4.30
2019-05-16T23:45:52.232Z,4.05
2019-05-16T23:48:25.222Z,4.12
2019-05-16T23:50:58.387Z,4.50
2019-05-16T23:53:31.375Z,4.40
2019-05-16T23:56:07.186Z,4.50
2019-05-16T23:58:51.480Z,4.40
